Time;durP1;ratioP1;P1;durP2;ratioP2;P2;SDS_P1;SDS_P2;PMS_P1;PMS_P2;Temp;Humidity;BMP_temperature;BMP_pressure;BME280_temperature;BME280_humidity;BME280_pressure;Samples;Min_cycle;Max_cycle;Signal;HPM_P1;HPM_P2
2022/07/08 00:01:21;;;;;;;23.02;14.73;;;;;;;21.90;100.00;99367.79;1661357;85;21046;-82
2022/07/08 00:03:48;;;;;;;23.50;15.32;;;;;;;21.87;100.00;99364.17;1661386;85;21058;-83
2022/07/08 00:06:15;;;;;;;22.98;15.05;;;;;;;21.85;100.00;99366.37;1661595;86;21014;-83
2022/07/08 00:08:42;;;;;;;21.07;14.78;;;;;;;21.83;100.00;99356.70;1661512;85;21476;-84
2022/07/08 00:11:11;;;;;;;23.02;15.38;;;;;;;21.81;100.00;99361.08;1661354;86;21010;-83
2022/07/08 00:13:39;;;;;;;24.32;15.55;;;;;;;21.78;100.00;99354.20;1661427;85;20971;-84
2022/07/08 00:16:07;;;;;;;21.85;13.75;;;;;;;21.76;100.00;99352.78;1661420;85;21067;-83
2022/07/08 00:18:35;;;;;;;22.52;14.25;;;;;;;21.74;100.00;99350.84;1673111;85;21054;-83
2022/07/08 00:21:02;;;;;;;21.80;14.65;;;;;;;21.71;100.00;99361.84;1675367;86;21030;-82
2022/07/08 00:23:29;;;;;;;22.87;14.70;;;;;;;21.68;100.00;99354.66;1675112;85;21057;-83
2022/07/08 00:25:57;;;;;;;23.77;14.68;;;;;;;21.65;100.00;99355.98;1675210;85;21108;-82
2022/07/08 00:28:24;;;;;;;21.60;13.43;;;;;;;21.63;100.00;99350.47;1663931;86;21057;-84
2022/07/08 00:30:51;;;;;;;21.02;13.72;;;;;;;21.60;100.00;99349.05;1675156;85;21057;-83
2022/07/08 00:33:18;;;;;;;22.22;13.32;;;;;;;21.56;100.00;99352.87;1675651;85;21021;-83
2022/07/08 00:35:45;;;;;;;20.75;13.48;;;;;;;21.51;100.00;99357.50;1675485;85;21086;-84
2022/07/08 00:38:12;;;;;;;21.55;14.10;;;;;;;21.46;100.00;99351.95;1675350;84;21096;-83
2022/07/08 00:40:39;;;;;;;20.57;14.07;;;;;;;21.39;100.00;99352.14;1675698;85;21045;-83
2022/07/08 00:43:08;;;;;;;20.70;14.00;;;;;;;21.32;100.00;99345.47;1675274;85;21010;-84
2022/07/08 00:45:35;;;;;;;21.33;13.75;;;;;;;21.28;100.00;99342.93;1673708;84;21643;-83
2022/07/08 00:48:02;;;;;;;20.12;13.48;;;;;;;21.26;100.00;99338.79;1675513;86;21060;-83
2022/07/08 00:50:29;;;;;;;23.42;14.87;;;;;;;21.24;100.00;99336.30;1675709;84;21101;-82
2022/07/08 00:52:56;;;;;;;21.30;14.23;;;;;;;21.22;100.00;99333.80;1675670;86;21100;-84
2022/07/08 00:55:24;;;;;;;22.32;13.65;;;;;;;21.21;100.00;99325.81;1664303;86;21070;-83
2022/07/08 00:57:51;;;;;;;21.52;13.32;;;;;;;21.19;100.00;99320.56;1675482;85;21065;-83
2022/07/08 01:00:18;;;;;;;22.45;13.93;;;;;;;21.16;100.00;99315.61;1675633;85;21019;-83
2022/07/08 01:02:45;;;;;;;20.90;13.55;;;;;;;21.16;100.00;99307.88;1675676;85;20998;-83
2022/07/08 01:05:12;;;;;;;22.00;13.85;;;;;;;21.15;100.00;99305.69;1633437;86;21025;-83
2022/07/08 01:07:41;;;;;;;20.97;14.05;;;;;;;21.16;100.00;99302.39;1675348;85;21045;-83
2022/07/08 01:10:09;;;;;;;22.73;14.23;;;;;;;21.17;100.00;99293.88;1675509;84;21041;-83
2022/07/08 01:12:37;;;;;;;21.60;14.25;;;;;;;21.18;100.00;99293.36;1675290;86;21100;-83
2022/07/08 01:15:09;;;;;;;21.17;14.83;;;;;;;21.18;100.00;99294.73;1675390;84;21073;-83
2022/07/08 01:17:44;;;;;;;20.15;13.62;;;;;;;21.18;100.00;99294.73;1673763;84;21085;-83
2022/07/08 01:20:13;;;;;;;19.70;12.82;;;;;;;21.17;100.00;99292.52;1635937;88;21591;-83
2022/07/08 01:22:42;;;;;;;23.02;13.70;;;;;;;21.16;100.00;99294.14;1622121;86;21045;-83
2022/07/08 01:25:09;;;;;;;21.17;12.85;;;;;;;21.13;100.00;99288.62;1617958;89;21045;-83
2022/07/08 01:27:37;;;;;;;20.27;13.28;;;;;;;21.15;100.00;99293.88;1617915;89;21068;-82
2022/07/08 01:30:15;;;;;;;20.25;13.00;;;;;;;21.14;100.00;99295.80;1617767;89;21029;-83
2022/07/08 01:32:44;;;;;;;20.82;12.78;;;;;;;21.15;100.00;99293.31;1618697;89;21033;-84
2022/07/08 01:35:11;;;;;;;22.40;13.08;;;;;;;21.14;100.00;99289.45;1619852;86;21078;-84
2022/07/08 01:37:38;;;;;;;21.50;13.15;;;;;;;21.14;100.00;99297.17;1619259;87;21061;-84
2022/07/08 01:40:09;;;;;;;21.52;12.65;;;;;;;21.14;100.00;99293.58;1618764;89;21085;-84
2022/07/08 01:42:36;;;;;;;20.05;13.28;;;;;;;21.13;100.00;99288.62;1617838;89;21044;-82
2022/07/08 01:45:04;;;;;;;19.62;12.63;;;;;;;21.11;100.00;99298.23;1617747;87;21029;-82
2022/07/08 01:47:31;;;;;;;21.12;12.03;;;;;;;21.08;100.00;99303.69;1617625;89;21113;-82
2022/07/08 01:49:58;;;;;;;35.30;13.48;;;;;;;21.05;100.00;99299.55;1617677;89;21034;-82
2022/07/08 01:52:25;;;;;;;31.02;13.78;;;;;;;21.04;100.00;99307.50;1617958;89;21084;-82
2022/07/08 01:54:52;;;;;;;27.10;12.93;;;;;;;21.01;100.00;99322.30;1617787;89;21097;-82
2022/07/08 01:57:21;;;;;;;22.15;12.58;;;;;;;21.00;100.00;99326.97;1617875;89;21001;-82
2022/07/08 01:59:50;;;;;;;19.85;11.83;;;;;;;21.00;100.00;99331.09;1597140;89;21101;-82
2022/07/08 02:02:19;;;;;;;25.20;13.13;;;;;;;21.03;100.00;99339.36;1618082;89;21055;-82
2022/07/08 02:04:46;;;;;;;21.75;12.85;;;;;;;21.04;100.00;99343.23;1617914;89;21037;-82
2022/07/08 02:07:13;;;;;;;26.42;12.50;;;;;;;21.05;100.00;99342.16;1618043;89;21041;-82
2022/07/08 02:09:42;;;;;;;22.60;12.68;;;;;;;21.08;100.00;99349.59;1617791;89;21084;-82
2022/07/08 02:12:18;;;;;;;23.38;12.80;;;;;;;21.06;100.00;99340.23;1617965;89;21033;-83
2022/07/08 02:15:03;;;;;;;22.05;11.60;;;;;;;21.07;100.00;99352.89;1618216;88;21057;-84
2022/07/08 02:17:40;;;;;;;21.75;11.57;;;;;;;21.05;100.00;99351.77;1653051;84;21097;-83
2022/07/08 02:22:40;;;;;;;21.90;11.90;;;;;;;21.02;100.00;99373.44;1652463;86;21069;-82
2022/07/08 02:25:09;;;;;;;17.80;10.95;;;;;;;21.00;100.00;99384.69;1645378;86;21077;-83
2022/07/08 02:27:37;;;;;;;19.48;11.30;;;;;;;21.02;100.00;99392.13;1645468;87;21124;-81
2022/07/08 02:30:07;;;;;;;20.15;11.28;;;;;;;21.02;100.00;99403.12;1645705;87;21030;-82
2022/07/08 02:32:34;;;;;;;18.07;10.28;;;;;;;21.02;100.00;99400.38;1645650;87;21547;-82
2022/07/08 02:35:02;;;;;;;18.65;11.00;;;;;;;21.02;100.00;99410.55;1645676;87;21145;-83
2022/07/08 02:37:29;;;;;;;21.80;10.93;;;;;;;21.00;100.00;99417.66;1645861;87;21014;-83
2022/07/08 02:39:56;;;;;;;19.60;9.90;;;;;;;20.99;100.00;99432.48;1645580;87;21057;-83
2022/07/08 02:42:24;;;;;;;22.73;10.70;;;;;;;21.01;100.00;99448.17;1645572;87;21076;-82
2022/07/08 02:44:51;;;;;;;24.77;10.30;;;;;;;21.02;100.00;99460.02;1645453;87;21085;-82
2022/07/08 02:47:18;;;;;;;22.22;11.22;;;;;;;21.03;100.00;99480.89;1645383;87;21073;-81
2022/07/08 02:49:46;;;;;;;20.57;10.20;;;;;;;21.09;100.00;99507.91;1645557;87;21069;-81
2022/07/08 02:52:14;;;;;;;20.00;10.78;;;;;;;21.20;100.00;99524.85;1645303;87;21152;-82
2022/07/08 02:54:40;;;;;;;19.10;10.30;;;;;;;21.29;100.00;99532.94;1645494;87;21045;-83
2022/07/08 02:57:08;;;;;;;18.40;10.60;;;;;;;21.34;100.00;99531.64;1645531;87;21069;-83
2022/07/08 02:59:35;;;;;;;20.57;11.18;;;;;;;21.41;100.00;99535.59;1645702;87;21101;-82
2022/07/08 03:02:04;;;;;;;18.55;10.95;;;;;;;21.43;100.00;99535.61;1645837;87;21065;-84
2022/07/08 03:04:32;;;;;;;19.55;10.30;;;;;;;21.45;100.00;99550.48;1646112;87;21072;-82
2022/07/08 03:06:59;;;;;;;17.35;9.33;;;;;;;21.48;100.00;99555.52;1646059;87;21070;-83
2022/07/08 03:09:27;;;;;;;19.10;10.55;;;;;;;21.53;100.00;99565.20;1645796;86;21077;-85
2022/07/08 03:11:54;;;;;;;19.87;9.53;;;;;;;21.56;100.00;99572.93;1646148;86;21045;-84
2022/07/08 03:14:22;;;;;;;17.15;9.45;;;;;;;21.63;100.00;99579.63;1645821;87;21551;-83
2022/07/08 03:16:49;;;;;;;15.28;9.08;;;;;;;21.67;100.00;99579.95;1646035;87;21041;-83
2022/07/08 03:19:17;;;;;;;20.23;9.53;;;;;;;21.72;100.00;99589.64;1652367;85;21104;-83
2022/07/08 03:21:44;;;;;;;17.05;9.48;;;;;;;21.79;100.00;99601.29;1653287;87;21025;-84
2022/07/08 03:24:13;;;;;;;16.30;9.53;;;;;;;21.87;100.00;99605.50;1645493;87;21563;-85
2022/07/08 03:26:41;;;;;;;16.90;8.78;;;;;;;21.91;100.00;99608.05;1657649;86;21061;-84
2022/07/08 03:29:08;;;;;;;23.00;9.08;;;;;;;21.94;100.00;99618.56;1661218;86;20994;-82
2022/07/08 03:31:35;;;;;;;14.58;8.53;;;;;;;21.97;100.00;99624.38;1661478;86;21018;-82
2022/07/08 03:34:02;;;;;;;15.80;7.97;;;;;;;22.02;100.00;99623.59;1661641;86;21038;-83
2022/07/08 03:36:29;;;;;;;14.23;8.15;;;;;;;22.08;100.00;99628.08;1661305;85;21066;-82
2022/07/08 03:38:57;;;;;;;15.68;8.18;;;;;;;22.15;100.00;99636.98;1661337;86;21469;-83
2022/07/08 03:41:23;;;;;;;16.12;8.03;;;;;;;22.24;100.00;99640.11;1661248;86;21570;-81
2022/07/08 03:43:52;;;;;;;13.58;7.28;;;;;;;22.31;100.00;99639.92;1660900;86;21054;-80
2022/07/08 03:46:20;;;;;;;18.42;7.90;;;;;;;22.40;100.00;99651.31;1661172;86;21069;-82
2022/07/08 03:48:47;;;;;;;21.17;8.85;;;;;;;22.48;100.00;99649.48;1661483;86;21006;-81
2022/07/08 03:51:15;;;;;;;18.20;7.45;;;;;;;22.54;100.00;99649.80;1661276;86;21039;-83
2022/07/08 03:53:43;;;;;;;19.80;7.85;;;;;;;22.61;100.00;99657.87;1661347;86;21082;-82
2022/07/08 03:56:10;;;;;;;22.32;7.10;;;;;;;22.69;100.00;99659.61;1660962;85;21102;-81
2022/07/08 03:58:37;;;;;;;16.73;6.72;;;;;;;22.78;100.00;99664.11;1661359;85;21066;-82
2022/07/08 04:01:05;;;;;;;14.55;6.33;;;;;;;22.86;100.00;99666.92;1660997;86;20986;-79
2022/07/08 04:03:33;;;;;;;13.95;6.17;;;;;;;22.93;100.00;99668.95;1661015;86;21077;-79
2022/07/08 04:06:00;;;;;;;15.18;6.40;;;;;;;23.01;100.00;99673.14;1660916;86;21497;-81
2022/07/08 04:08:27;;;;;;;13.78;6.37;;;;;;;23.10;100.00;99681.24;1661163;86;21568;-80
2022/07/08 04:10:54;;;;;;;15.75;7.45;;;;;;;23.20;100.00;99681.89;1661118;86;21517;-81
2022/07/08 04:13:23;;;;;;;13.98;6.30;;;;;;;23.31;100.00;99685.83;1661298;85;20987;-81
2022/07/08 04:15:51;;;;;;;18.85;6.50;;;;;;;23.42;100.00;99683.97;1660992;86;21045;-81
2022/07/08 04:18:18;;;;;;;13.50;5.47;;;;;;;23.56;100.00;99686.29;1668972;84;21057;-80
2022/07/08 04:20:45;;;;;;;22.15;6.05;;;;;;;23.68;100.00;99695.20;1679994;84;20998;-82
2022/07/08 04:23:12;;;;;;;19.07;5.67;;;;;;;23.84;100.00;99698.36;1680545;84;21053;-82
2022/07/08 04:25:39;;;;;;;14.98;5.92;;;;;;;24.05;100.00;99695.72;1680177;85;21017;-82
2022/07/08 04:28:06;;;;;;;11.20;5.35;;;;;;;24.27;100.00;99701.05;1680329;85;21041;-81
2022/07/08 04:30:34;;;;;;;16.97;5.70;;;;;;;24.54;100.00;99705.06;1679966;85;21061;-81
2022/07/08 04:33:02;;;;;;;11.83;5.72;;;;;;;24.81;100.00;99708.99;1680083;85;21061;-81
2022/07/08 04:35:29;;;;;;;15.08;5.22;;;;;;;25.06;100.00;99706.55;1680351;84;21077;-81
2022/07/08 04:37:56;;;;;;;15.90;5.20;;;;;;;25.30;100.00;99709.08;1680322;84;21542;-81
2022/07/08 04:40:23;;;;;;;15.63;5.78;;;;;;;25.55;100.00;99715.68;1679824;84;21097;-81
2022/07/08 04:42:49;;;;;;;16.35;5.60;;;;;;;25.77;100.00;99715.39;1680037;85;21030;-81
2022/07/08 04:45:17;;;;;;;12.53;5.20;;;;;;;25.97;100.00;99722.02;1680180;85;21204;-81
2022/07/08 04:47:46;;;;;;;11.22;5.00;;;;;;;26.14;100.00;99723.91;1680005;85;21057;-81
2022/07/08 04:50:13;;;;;;;15.95;5.22;;;;;;;26.33;100.00;99717.20;1680521;85;21041;-82
2022/07/08 04:52:40;;;;;;;12.15;4.65;;;;;;;26.52;100.00;99722.38;1680397;85;21038;-81
2022/07/08 04:55:07;;;;;;;11.60;4.87;;;;;;;26.74;100.00;99724.48;1680099;85;21550;-81
2022/07/08 04:57:35;;;;;;;14.68;4.47;;;;;;;26.92;100.00;99723.84;1680076;85;21057;-80
2022/07/08 05:00:02;;;;;;;14.75;4.90;;;;;;;27.07;100.00;99728.44;1673791;85;21089;-79
2022/07/08 05:02:30;;;;;;;21.17;5.42;;;;;;;27.24;100.00;99724.70;1648165;87;21103;-82
2022/07/08 05:04:56;;;;;;;18.15;6.05;;;;;;;27.41;100.00;99727.11;1647746;87;21075;-84
2022/07/08 05:07:23;;;;;;;16.35;5.12;;;;;;;27.59;100.00;99728.33;1647095;87;21081;-82
2022/07/08 05:09:50;;;;;;;14.00;5.00;;;;;;;27.73;100.00;99736.81;1668619;85;21093;-81
2022/07/08 05:12:18;;;;;;;11.68;4.47;;;;;;;27.87;100.00;99731.41;1655948;87;21003;-82
2022/07/08 05:14:45;;;;;;;14.30;6.95;;;;;;;28.03;100.00;99737.66;1646054;87;21066;-80
2022/07/08 05:17:12;;;;;;;34.35;27.07;;;;;;;28.20;100.00;99737.17;1645243;87;21118;-80
2022/07/08 05:19:39;;;;;;;19.90;9.58;;;;;;;28.37;100.00;99737.52;1628592;87;21127;-81
2022/07/08 05:22:07;;;;;;;19.62;6.45;;;;;;;28.50;100.00;99738.74;1626691;87;21549;-80
2022/07/08 05:24:34;;;;;;;19.90;8.98;;;;;;;28.62;100.00;99745.88;1626030;88;21087;-82
2022/07/08 05:27:01;;;;;;;29.15;21.73;;;;;;;28.74;100.00;99740.70;1626637;88;21063;-80
2022/07/08 05:29:27;;;;;;;13.80;6.83;;;;;;;28.88;100.00;99744.39;1626478;88;21072;-79
2022/07/08 05:31:54;;;;;;;19.40;10.93;;;;;;;29.02;100.00;99745.86;1626272;86;21125;-80
2022/07/08 05:34:22;;;;;;;18.62;8.90;;;;;;;29.16;100.00;99748.72;1626300;88;21075;-81
2022/07/08 05:36:49;;;;;;;21.17;12.13;;;;;;;29.33;99.69;99749.00;1626466;88;21075;-81
2022/07/08 05:39:16;;;;;;;17.57;9.20;;;;;;;29.47;96.59;99740.70;1631257;86;21032;-80
2022/07/08 05:41:43;;;;;;;18.55;5.87;;;;;;;29.65;94.04;99742.36;1643428;86;21097;-77
2022/07/08 05:44:10;;;;;;;13.98;4.20;;;;;;;29.85;91.45;99743.97;1649008;87;21124;-79
2022/07/08 05:46:38;;;;;;;21.27;5.28;;;;;;;30.04;84.50;99744.72;1649933;86;21057;-77
2022/07/08 05:49:05;;;;;;;12.03;3.62;;;;;;;30.21;82.01;99748.87;1650147;87;21037;-78
2022/07/08 05:51:32;;;;;;;7.70;3.62;;;;;;;30.33;78.68;99739.39;1639758;87;21026;-78
2022/07/08 05:54:00;;;;;;;11.75;3.67;;;;;;;30.45;76.58;99745.31;1666469;86;21101;-79
2022/07/08 05:56:27;;;;;;;10.32;3.90;;;;;;;30.53;74.30;99741.53;1661082;86;21081;-80
2022/07/08 05:58:54;;;;;;;11.10;4.83;;;;;;;30.62;72.63;99744.69;1661416;86;21053;-78
2022/07/08 06:01:21;;;;;;;19.80;5.35;;;;;;;30.78;71.84;99747.96;1660267;86;21092;-77
2022/07/08 06:03:48;;;;;;;16.00;5.90;;;;;;;30.91;70.71;99746.27;1660551;86;21615;-77
2022/07/08 06:06:15;;;;;;;22.98;6.28;;;;;;;31.09;75.82;99750.06;1661109;86;21579;-77
2022/07/08 06:08:44;;;;;;;10.28;5.42;;;;;;;31.25;66.93;99749.70;1661513;86;21054;-80
2022/07/08 06:11:11;;;;;;;12.20;5.03;;;;;;;31.31;65.80;99745.66;1662350;86;21053;-76
2022/07/08 06:13:38;;;;;;;36.08;28.52;;;;;;;31.34;62.40;99752.84;1636819;86;21544;-78
2022/07/08 06:16:07;;;;;;;26.65;10.90;;;;;;;31.28;62.71;99751.88;1633214;88;21165;-80
2022/07/08 06:18:35;;;;;;;9.95;5.60;;;;;;;31.29;60.67;99754.36;1630177;87;21559;-77
2022/07/08 06:21:02;;;;;;;12.80;4.67;;;;;;;31.36;59.91;99752.49;1622883;88;21055;-79
2022/07/08 06:23:29;;;;;;;22.40;6.20;;;;;;;31.42;59.75;99752.64;1603586;88;21106;-80
2022/07/08 06:25:58;;;;;;;20.68;10.30;;;;;;;31.49;57.41;99753.05;1622618;88;21116;-79
2022/07/08 06:28:25;;;;;;;20.77;12.78;;;;;;;31.60;57.71;99752.20;1622855;88;21047;-74
2022/07/08 06:30:52;;;;;;;10.58;5.53;;;;;;;31.70;55.44;99753.93;1618009;88;21022;-74
2022/07/08 06:33:19;;;;;;;15.18;3.70;;;;;;;31.69;54.18;99755.88;1594904;89;21651;-74
2022/07/08 06:35:45;;;;;;;14.38;4.37;;;;;;;31.70;52.87;99750.55;1594237;90;21098;-74
2022/07/08 06:38:14;;;;;;;15.85;4.30;;;;;;;31.69;53.86;99760.65;1594923;90;21529;-74
2022/07/08 06:40:41;;;;;;;9.18;3.75;;;;;;;31.76;55.31;99759.04;1595601;90;21078;-78
2022/07/08 06:43:08;;;;;;;11.33;3.90;;;;;;;31.96;54.77;99758.23;1595520;90;21086;-79
2022/07/08 06:45:36;;;;;;;11.90;4.20;;;;;;;32.15;52.27;99756.64;1595566;90;21098;-79
2022/07/08 06:48:04;;;;;;;11.45;3.55;;;;;;;32.28;52.98;99760.47;1596304;90;21114;-79
2022/07/08 06:50:33;;;;;;;12.82;3.80;;;;;;;32.42;51.97;99759.80;1595163;90;21592;-77
2022/07/08 06:52:59;;;;;;;6.78;3.40;;;;;;;32.59;51.76;99758.19;1595199;90;21063;-78
2022/07/08 06:55:26;;;;;;;14.33;3.87;;;;;;;32.80;52.58;99756.45;1595171;90;21094;-78
2022/07/08 06:57:55;;;;;;;9.78;4.33;;;;;;;33.02;48.75;99757.45;1595442;90;21043;-77
2022/07/08 07:00:23;;;;;;;17.77;4.45;;;;;;;33.17;47.24;99754.79;1596024;90;21138;-79
2022/07/08 07:02:50;;;;;;;14.33;4.12;;;;;;;33.30;45.17;99755.17;1595881;89;21121;-79
2022/07/08 07:05:21;;;;;;;17.07;4.25;;;;;;;33.34;46.23;99751.14;1595900;90;21083;-79
2022/07/08 07:07:48;;;;;;;21.85;4.80;;;;;;;33.41;43.74;99742.47;1596020;90;21046;-79
2022/07/08 07:10:15;;;;;;;29.85;5.65;;;;;;;33.47;41.54;99741.73;1596101;90;21585;-79
2022/07/08 07:12:41;;;;;;;27.35;4.90;;;;;;;33.62;41.76;99743.18;1609826;88;21104;-78
2022/07/08 07:15:10;;;;;;;14.87;3.75;;;;;;;33.81;41.98;99737.23;1622120;87;21572;-80
2022/07/08 07:20:11;;;;;;;19.75;8.85;;;;;;;34.11;41.46;99733.09;1554779;92;21191;-79
2022/07/08 07:22:38;;;;;;;31.65;13.85;;;;;;;34.15;40.76;99731.24;1557303;92;21100;-80
2022/07/08 07:25:07;;;;;;;30.20;16.42;;;;;;;34.23;41.37;99736.84;1552310;92;21099;-79
2022/07/08 07:27:35;;;;;;;13.00;5.50;;;;;;;34.33;39.92;99734.22;1552492;92;21105;-77
2022/07/08 07:30:03;;;;;;;17.82;5.60;;;;;;;34.39;38.84;99734.87;1551662;92;21104;-79
2022/07/08 07:32:30;;;;;;;16.10;6.42;;;;;;;34.51;40.78;99732.73;1551479;92;21171;-74
2022/07/08 07:34:57;;;;;;;22.35;7.97;;;;;;;34.70;41.07;99728.91;1552144;92;21064;-74
2022/07/08 07:37:24;;;;;;;12.93;5.60;;;;;;;34.87;41.07;99722.95;1551673;92;21554;-73
2022/07/08 07:39:51;;;;;;;14.50;5.75;;;;;;;35.06;38.69;99729.47;1551592;92;21136;-74
2022/07/08 07:42:18;;;;;;;16.25;5.80;;;;;;;35.10;38.06;99727.05;1551386;92;21657;-72
2022/07/08 07:44:45;;;;;;;19.95;5.05;;;;;;;35.16;37.74;99725.66;1551494;92;21661;-74
2022/07/08 07:47:12;;;;;;;13.35;4.37;;;;;;;35.07;37.74;99727.72;1551807;92;21064;-79
2022/07/08 07:49:40;;;;;;;14.38;3.62;;;;;;;34.99;36.98;99728.64;1551301;89;21159;-77
2022/07/08 07:52:07;;;;;;;10.53;3.25;;;;;;;35.01;37.43;99722.09;1552117;92;21128;-78
2022/07/08 07:54:34;;;;;;;9.60;4.62;;;;;;;35.09;37.08;99721.77;1552577;92;21116;-80
2022/07/08 07:57:02;;;;;;;16.85;6.15;;;;;;;35.16;37.40;99720.03;1552606;92;21131;-81
2022/07/08 07:59:29;;;;;;;14.30;4.95;;;;;;;35.35;38.26;99718.16;1551783;91;21192;-79
2022/07/08 08:01:56;;;;;;;18.02;5.33;;;;;;;35.52;36.99;99712.11;1552285;92;21123;-79
2022/07/08 08:04:23;;;;;;;14.18;3.80;;;;;;;35.67;37.11;99705.83;1551841;92;21048;-79
2022/07/08 08:06:50;;;;;;;17.35;4.60;;;;;;;35.78;35.02;99708.23;1551682;92;21116;-80
2022/07/08 08:09:17;;;;;;;11.95;4.03;;;;;;;35.81;34.56;99709.77;1551787;92;21156;-78
2022/07/08 08:11:45;;;;;;;10.85;3.22;;;;;;;35.82;34.66;99711.42;1558199;89;21155;-78
2022/07/08 08:14:12;;;;;;;11.95;3.50;;;;;;;35.74;34.25;99707.52;1608716;89;21101;-80
2022/07/08 08:16:39;;;;;;;9.20;3.70;;;;;;;35.75;33.71;99708.33;1609146;89;21496;-80
2022/07/08 08:19:07;;;;;;;11.73;3.70;;;;;;;35.81;34.11;99710.36;1613476;88;21657;-78
2022/07/08 08:21:36;;;;;;;7.05;3.10;;;;;;;35.82;33.66;99704.39;1627566;88;21124;-81
2022/07/08 08:24:04;;;;;;;14.85;3.98;;;;;;;35.88;33.58;99700.16;1699171;83;21072;-78
2022/07/08 08:26:32;;;;;;;7.08;2.90;;;;;;;36.00;32.69;99697.95;1723644;83;21077;-79
2022/07/08 08:28:59;;;;;;;10.40;4.35;;;;;;;36.12;31.75;99695.71;1676575;85;21594;-80
2022/07/08 08:31:26;;;;;;;12.98;3.58;;;;;;;36.21;30.97;99701.25;1675848;86;21057;-78
2022/07/08 08:33:53;;;;;;;13.48;3.45;;;;;;;36.25;30.33;99696.58;1675869;86;21034;-79
2022/07/08 08:36:20;;;;;;;21.77;5.17;;;;;;;36.36;31.45;99694.92;1675579;86;21014;-78
2022/07/08 08:38:49;;;;;;;15.88;3.50;;;;;;;36.62;32.14;99691.72;1673978;86;21104;-78
2022/07/08 08:41:16;;;;;;;11.73;3.60;;;;;;;36.97;31.07;99688.94;1662745;85;21045;-79
2022/07/08 08:43:44;;;;;;;10.45;2.85;;;;;;;37.10;30.28;99682.66;1674381;85;21054;-77
2022/07/08 08:46:11;;;;;;;16.10;3.10;;;;;;;37.11;29.19;99684.31;1674438;86;21053;-78
2022/07/08 08:48:39;;;;;;;17.55;3.37;;;;;;;37.09;29.29;99681.03;1674100;86;21026;-78
2022/07/08 08:51:08;;;;;;;11.97;3.12;;;;;;;37.07;29.55;99679.98;1673559;86;21579;-78
2022/07/08 08:53:45;;;;;;;20.77;4.72;;;;;;;36.96;29.51;99684.50;1674100;86;21096;-79
2022/07/08 08:56:15;;;;;;;92.90;12.53;;;;;;;36.87;29.08;99684.64;1674294;84;21029;-78
2022/07/08 08:58:49;;;;;;;15.28;4.85;;;;;;;36.84;29.95;99683.34;1673882;86;21484;-78
2022/07/08 09:01:18;;;;;;;11.40;3.55;;;;;;;37.09;30.43;99676.80;1674402;86;21056;-79
2022/07/08 09:03:47;;;;;;;20.85;4.85;;;;;;;37.36;30.11;99672.34;1674299;86;21076;-78
2022/07/08 09:06:13;;;;;;;21.77;4.03;;;;;;;37.61;30.68;99665.39;1673511;86;21053;-78
2022/07/08 09:08:41;;;;;;;6.60;3.08;;;;;;;37.86;29.18;99663.84;1673524;86;21092;-77
2022/07/08 09:11:08;;;;;;;8.03;3.33;;;;;;;38.03;27.88;99672.50;1673997;85;21034;-79
2022/07/08 09:13:35;;;;;;;11.28;4.40;;;;;;;38.09;27.29;99664.56;1673854;86;21061;-80
2022/07/08 09:16:02;;;;;;;22.93;3.77;;;;;;;38.25;27.54;99664.00;1673911;85;21148;-78
2022/07/08 09:18:35;;;;;;;6.37;2.62;;;;;;;38.38;26.58;99678.00;1673299;86;21532;-82
2022/07/08 09:21:02;;;;;;;11.63;3.47;;;;;;;38.10;25.66;99678.34;1662318;85;21118;-79
2022/07/08 09:23:32;;;;;;;8.25;3.00;;;;;;;37.79;26.48;99667.28;1659218;85;21069;-76
2022/07/08 09:26:08;;;;;;;15.58;3.52;;;;;;;37.65;26.38;99664.11;1659484;86;21169;-80
2022/07/08 09:28:43;;;;;;;9.25;3.47;;;;;;;37.36;26.87;99660.50;1663834;86;21127;-78
2022/07/08 09:31:13;;;;;;;15.53;3.37;;;;;;;37.31;27.94;99664.15;1649179;87;21051;-79
2022/07/08 09:33:42;;;;;;;8.58;3.25;;;;;;;37.41;28.69;99664.44;1619182;88;21181;-78
2022/07/08 09:36:10;;;;;;;10.38;2.90;;;;;;;37.48;26.88;99661.00;1647650;86;21142;-80
2022/07/08 09:38:40;;;;;;;9.58;3.40;;;;;;;37.48;26.50;99658.78;1645962;87;21187;-74
2022/07/08 09:41:16;;;;;;;5.87;2.70;;;;;;;37.52;26.09;99666.16;1646185;87;21072;-74
2022/07/08 09:43:45;;;;;;;15.95;3.25;;;;;;;37.48;25.17;99654.55;1646699;86;21140;-75
2022/07/08 09:46:12;;;;;;;9.50;3.58;;;;;;;37.46;25.81;99658.33;1646854;87;21000;-73
2022/07/08 09:48:39;;;;;;;16.20;4.45;;;;;;;37.59;26.18;99666.92;1646503;87;21124;-74
2022/07/08 09:51:09;;;;;;;11.25;3.70;;;;;;;37.71;25.34;99667.47;1646285;87;21056;-75
2022/07/08 09:53:38;;;;;;;14.98;3.70;;;;;;;37.79;25.20;99660.84;1645751;87;21629;-75
2022/07/08 09:56:06;;;;;;;12.05;3.50;;;;;;;37.94;25.86;99655.76;1646314;87;21099;-75
2022/07/08 09:58:34;;;;;;;9.88;3.55;;;;;;;38.01;25.76;99657.13;1646753;86;21076;-74
2022/07/08 10:01:02;;;;;;;10.63;3.17;;;;;;;37.89;24.48;99658.85;1646676;87;21072;-73
2022/07/08 10:03:30;;;;;;;17.95;3.85;;;;;;;37.64;24.46;99658.83;1646451;87;21602;-73
2022/07/08 10:05:56;;;;;;;17.02;5.42;;;;;;;37.41;24.74;99660.21;1646549;87;21654;-74
2022/07/08 10:08:24;;;;;;;8.65;2.92;;;;;;;37.41;25.70;99664.44;1637172;86;21034;-74
2022/07/08 10:10:53;;;;;;;10.10;2.52;;;;;;;37.56;26.40;99654.98;1636069;86;21046;-72
2022/07/08 10:13:20;;;;;;;4.72;2.60;;;;;;;37.75;26.22;99653.70;1630230;87;21492;-75
2022/07/08 10:15:48;;;;;;;15.00;3.50;;;;;;;37.98;25.61;99650.20;1624030;87;21010;-74
2022/07/08 10:18:24;;;;;;;7.78;3.10;;;;;;;38.14;25.14;99656.69;1603004;89;21047;-76
2022/07/08 10:20:54;;;;;;;15.20;3.75;;;;;;;38.11;25.27;99654.59;1628348;86;20990;-72
2022/07/08 10:23:46;;;;;;;10.90;2.98;;;;;;;37.93;24.69;99658.37;1629252;87;21081;-75
2022/07/08 10:26:13;;;;;;;13.43;3.22;;;;;;;37.75;23.75;99654.27;1620586;87;21049;-79
2022/07/08 10:28:44;;;;;;;11.65;3.45;;;;;;;37.52;24.04;99645.02;1605678;87;21101;-79
2022/07/08 10:31:19;;;;;;;8.38;3.00;;;;;;;37.48;24.70;99637.03;1629979;86;21046;-80
2022/07/08 10:33:47;;;;;;;9.53;3.00;;;;;;;37.46;24.14;99641.41;1678550;85;21030;-79
2022/07/08 10:36:20;;;;;;;11.85;3.37;;;;;;;37.42;24.83;99637.90;1678247;85;21548;-78
2022/07/08 10:38:47;;;;;;;7.83;3.30;;;;;;;37.53;25.13;99634.55;1632383;87;21046;-78
2022/07/08 10:41:26;;;;;;;32.17;4.90;;;;;;;37.70;24.29;99632.81;1653176;86;21124;-78
2022/07/08 10:43:54;;;;;;;9.05;3.62;;;;;;;37.80;23.82;99631.42;1677845;85;21058;-78
2022/07/08 10:46:22;;;;;;;7.25;2.80;;;;;;;37.73;24.00;99638.30;1653945;86;21539;-78
2022/07/08 10:48:57;;;;;;;9.63;3.17;;;;;;;37.59;23.81;99638.72;1652717;87;20994;-79
2022/07/08 10:51:31;;;;;;;16.23;3.90;;;;;;;37.55;24.92;99630.77;1574226;91;21097;-80
2022/07/08 10:54:01;;;;;;;10.10;3.40;;;;;;;37.88;25.44;99638.89;1604654;89;21127;-80
2022/07/08 10:56:58;;;;;;;33.02;5.53;;;;;;;38.34;25.32;99632.14;1603820;89;21111;-79
2022/07/08 10:59:32;;;;;;;8.45;3.35;;;;;;;38.64;24.24;99623.14;1603915;89;21043;-79
2022/07/08 11:02:16;;;;;;;13.13;3.40;;;;;;;38.85;23.49;99634.65;1604168;88;21099;-80
2022/07/08 11:04:48;;;;;;;13.35;3.45;;;;;;;38.70;23.44;99625.88;1604387;89;21564;-80
2022/07/08 11:07:28;;;;;;;11.20;3.58;;;;;;;38.34;23.54;99625.69;1604801;89;21593;-75
2022/07/08 11:10:08;;;;;;;9.75;3.05;;;;;;;38.05;24.45;99632.03;1604664;89;21126;-79
2022/07/08 11:12:45;;;;;;;15.03;3.50;;;;;;;38.02;25.28;99623.48;1603018;89;21060;-79
2022/07/08 11:15:17;;;;;;;10.15;4.17;;;;;;;38.06;24.90;99628.03;1583622;90;21036;-78
2022/07/08 11:17:50;;;;;;;10.43;3.70;;;;;;;38.12;25.68;99620.94;1583335;91;21065;-80
2022/07/08 11:20:18;;;;;;;;;;;;;;;38.15;23.85;99621.63;1582247;90;21147;-79
2022/07/08 11:22:45;;;;;;;6.80;3.10;;;;;;;37.79;23.54;99626.98;1594403;89;20107;-82
2022/07/08 11:25:14;;;;;;;11.57;3.45;;;;;;;37.52;23.69;99623.87;1600504;90;21654;-79
2022/07/08 11:27:43;;;;;;;8.40;3.52;;;;;;;37.38;23.98;99620.08;1590706;90;21642;-78
2022/07/08 11:30:15;;;;;;;13.10;6.72;;;;;;;37.38;24.91;99621.48;1590469;90;21127;-78